Edisto Island, SC (29438)

12:07 PM EDT on August 30, 2014 (GMT -0400)
Sandy Creek | Change Station
CLOSE
Current Station
Personal Weather Station
Location: Edisto Island, SC
Elevation: 20 ft
Nearby Weather Stations

Elev 20 ft 32.54 °N, 80.33 °W | Updated 12 seconds ago

Partly Cloudy
Partly Cloudy
84.0 °F
Feels Like 94 °F
N
7.0
Wind Variable Wind from SSE
Gusts 13.0 mph

Today
High -- | Low -- °F
--% Chance of Precip.
Yesterday
High -- | Low -- °F
Precip. -- in
6:54 AM 7:48 PM
Waxing Crescent, 23% visible
Pressure 30.17 in
Visibility 7.0 miles
Clouds Scattered Clouds 3000 ft
Mostly Cloudy 3800 ft
Mostly Cloudy 6000 ft
Heat Index 94 °F
Dew Point 77 °F
Humidity 80%
Rainfall 0.00 in
Snow Depth Not available.
UV 6 out of 12
Pollen 8.00 out of 12
Air Quality Not available.
Flu Activity Not available.
METAR KARW 301555Z AUTO 11005KT 7SM SCT030 BKN038 BKN060 31/25 A3017 RMK AO2

More Conditions Fewer Conditions

Pressure 30.17 in
Visibility 7.0 miles
Clouds Scattered Clouds 3000 ft
Mostly Cloudy 3800 ft
Mostly Cloudy 6000 ft
Heat Index 94 °F
Dew Point 77 °F
Humidity 80%
Rainfall 0.00 in
Snow Depth Not available.
UV 6 out of 12
Pollen 8.00 out of 12
Air Quality Not available.
Flu Activity Not available.
METAR KARW 301555Z AUTO 11005KT 7SM SCT030 BKN038 BKN060 31/25 A3017 RMK AO2

More Conditions Fewer Conditions

10-Day Weather Forecast

Almanac

Astronomy

Aug. 30, 2014 Rise Set
Actual Time 6:54 AM EDT 7:48 PM EDT
Civil Twilight 6:29 AM EDT 8:13 PM EDT
Nautical Twilight 5:59 AM EDT 8:43 PM EDT
Astronomical Twilight 5:29 AM EDT 9:13 PM EDT
Moon 11:23 AM EDT 10:40 PM EDT
Length of Visible Light 13h 43m
Length of Day
12h 53m
Tomorrow will be 1m 53s shorter.
Waxing Crescent, 23% of the Moon is Illuminated
Today
Waxing Crescent
Sep 2
First Quarter
Sep 8
Full
Sep 15
Last Quarter
Sep 24
New

Today's Extremes

State Highs State Lows

Community

WunderPhotos

Upload Photos

1,748,555 photos uploaded!

WunderBlogs® & News

Nearby

Snow Depth

Station Depth Elevation
No new snow has been reported.

Earthquake Activity

City Distance Mag. Time & Date
No recent earthquake activity has been reported nearby.
Minimum magnitude displayed is 2.5.

Coastal Water Temperatures

Place Temperature
No Stations Reporting

Nearby Weather Stations